aviador You're here:

NWWW Decoded Metar

NOUMEA in NEW CALEDONIA
Report Time2017-03-28 06:00:00
UTC Time2017-03-28 06:17:41
Flight Rules vfr VFR
Wind160° at 10 kt
W.Decomp.*RWY 11: 7.9 kt HW 6.2 kt RCW
W.Rank160° ranks 9
Current wind is above 160° avg. (7.4)
Visibility9999 m
Phenomena:N/A
Clouds:Few 030 Hf
Expected CloudBase > 2,800 ft AGL from Temp-Dew spread
CeilingNone
Temp27°C (ISA +12)
Dew Point20°C (66% RH)
Heat Index28.5°C
QNH1011 hPa
Density Alt1,824 ft
Elevation52 ft
Report Wrong Elevation
Raw Report
NWWW 280600Z AUTO 16010KT 9999 FEW030 27/20 Q1011 NOSIG=

Extra information for NWWW:More info

Metar Taf Metar & Taf Last 4 Metars F.Rules Stats Wind Profile Meteogram Temp Stats Airport Information Weather charts Add Link Nearby VenuesMetar ALERT Operation Metar Decoded Social comments